Time;durP1;ratioP1;P1;durP2;ratioP2;P2;SDS_P1;SDS_P2;PMS_P1;PMS_P2;Temp;Humidity;BMP_temperature;BMP_pressure;BME280_temperature;BME280_humidity;BME280_pressure;Samples;Min_cycle;Max_cycle;Signal;HPM_P1;HPM_P2
2020/12/15 17:50:13;;;;;;;;;;;;;;;;;;5056190;27;20009;-63
2020/12/15 18:08:41;;;;;;;;;;;;;;;21.37;58.78;100821.16;5010767;28;135693;-67
2020/12/15 18:12:28;;;;;;;;;;;;;;;20.19;62.64;100821.66;5028398;27;125563;-57
2020/12/15 18:14:53;;;;;;;;;;;;;;;20.11;63.06;100827.44;5033319;28;11524;-72
2020/12/15 18:17:55;;;;;;;;;;;;;;;20.06;63.20;100826.84;5056458;27;91620;-59
2020/12/15 18:20:21;;;;;;;;;;;;;;;20.04;63.13;100830.53;5057904;28;10471;-58
2020/12/15 18:24:09;;;;;;;;;;;;;;;20.02;62.93;100827.13;5052261;28;10421;-69
2020/12/15 18:26:34;;;;;;;;;;;;;;;19.64;63.96;100832.91;5002688;28;1557;-68
2020/12/15 18:29:00;;;;;;;;;;;;;;;19.52;64.27;100833.66;5002115;28;119368;-68
2020/12/15 18:33:39;;;;;;;;;;;;;;;19.43;65.02;100854.47;5024896;28;10278;-67
2020/12/15 18:36:05;;;;;;;;;;;;;;;19.41;64.88;100861.63;5022301;28;11173;-68
2020/12/15 18:38:31;;;;;;;;;;;;;;;19.38;64.93;100862.63;5025428;28;1346;-66
2020/12/15 18:40:57;;;;;;;;;;;;;;;19.38;65.00;100869.69;5024963;28;1524;-68
2020/12/15 18:43:22;;;;;;;;;;;;;;;19.38;65.17;100874.97;5007345;28;1604;-65
2020/12/15 18:45:48;;;;;;;;;;;;;;;19.37;65.25;100875.91;5023511;28;1599;-65
2020/12/15 18:51:47;;;;;;;;;;;;;;;19.35;65.21;100862.81;5004339;28;1910;-67
2020/12/15 18:54:12;;;;;;;;;;;;;;;19.38;65.17;100867.91;4999905;28;1604;-64
2020/12/15 18:56:51;;;;;;;;;;;;;;;19.46;65.37;100864.84;5001257;28;1441;-64
2020/12/15 18:59:36;;;;;;;;;;;;;;;19.37;65.05;100865.34;5011483;28;1493;-66
2020/12/15 19:02:05;;;;;;;;;;;;;;;19.32;65.35;100877.97;4997006;28;1556;-59
2020/12/15 19:04:31;;;;;;;;;;;;;;;19.29;65.43;100886.94;4998384;28;1417;-64
2020/12/15 19:07:01;;;;;;;;;;;;;;;19.28;65.60;100887.00;5001481;28;1639;-66
2020/12/15 19:09:41;;;;;;;;;;;;;;;19.30;66.07;100893.91;4999958;28;2383;-68
2020/12/15 19:15:49;;;;;;;;;;;;;;;19.37;66.56;100899.69;4980974;28;1529;-67
2020/12/15 19:21:42;;;;;;;;;;;;;;;19.33;67.17;100893.72;4953351;28;1660;-64
2020/12/15 19:24:36;;;;;;;;;;;;;;;19.25;66.93;100893.31;4944920;28;1517;-63
2020/12/15 19:27:08;;;;;;;;;;;;;;;19.19;66.40;100893.66;4993362;28;1687;-64
2020/12/15 19:29:33;;;;;;;;;;;;;;;19.19;66.11;100900.72;4999806;28;1557;-65
2020/12/15 19:31:59;;;;;;;;;;;;;;;19.16;65.52;100900.91;5000929;28;1975;-65
2020/12/15 19:34:24;;;;;;;;;;;;;;;19.14;65.17;100906.28;5017595;28;1587;-64
2020/12/15 19:36:50;;;;;;;;;;;;;;;19.12;64.74;100902.03;5002529;28;1560;-65
2020/12/15 19:39:17;;;;;;;;;;;;;;;19.09;64.28;100905.66;5018142;28;1532;-64
2020/12/15 19:41:42;;;;;;;;;;;;;;;19.06;64.15;100909.34;5000808;28;1529;-64
2020/12/15 19:44:08;;;;;;;;;;;;;;;19.04;63.97;100903.31;4995795;28;1752;-67
2020/12/15 19:46:37;;;;;;;;;;;;;;;19.02;64.07;100902.53;4993215;28;1495;-66
2020/12/15 19:49:03;;;;;;;;;;;;;;;19.02;63.78;100901.69;4990980;28;2388;-64
2020/12/15 19:51:28;;;;;;;;;;;;;;;19.04;63.59;100905.94;4987875;28;1918;-67
2020/12/15 19:53:54;;;;;;;;;;;;;;;19.12;63.72;100904.66;4998368;28;1537;-68
2020/12/15 19:56:27;;;;;;;;;;;;;;;19.15;64.68;100905.31;4989424;28;2525;-65
2020/12/15 19:58:53;;;;;;;;;;;;;;;19.21;65.05;100909.44;5005555;28;1619;-65
2020/12/15 20:01:18;;;;;;;;;;;;;;;19.26;64.72;100920.59;4988009;28;1460;-63
2020/12/15 20:03:44;;;;;;;;;;;;;;;19.31;65.42;100929.94;4990342;28;1560;-65
2020/12/15 20:06:09;;;;;;;;;;;;;;;19.34;65.50;100934.19;4990212;28;1728;-65
2020/12/15 20:08:35;;;;;;;;;;;;;;;19.40;65.04;100931.25;5004963;28;1611;-62
2020/12/15 20:11:01;;;;;;;;;;;;;;;19.42;65.14;100937.31;4987621;28;1440;-62
2020/12/15 20:13:30;;;;;;;;;;;;;;;19.37;65.53;100934.03;4987257;28;1999;-63
2020/12/15 20:15:58;;;;;;;;;;;;;;;19.36;65.49;100942.91;4987536;28;1706;-65
2020/12/15 20:18:23;;;;;;;;;;;;;;;19.36;65.40;100940.28;4986618;28;1286;-63
2020/12/15 20:20:49;;;;;;;;;;;;;;;19.33;65.33;100938.63;4989171;28;1269;-63
2020/12/15 20:23:17;;;;;;;;;;;;;;;19.33;65.39;100945.72;4988687;28;1275;-65
2020/12/15 20:25:44;;;;;;;;;;;;;;;19.31;65.48;100940.50;4992882;28;1303;-63
2020/12/15 20:28:09;;;;;;;;;;;;;;;19.30;65.55;100949.38;4977391;28;1420;-64
2020/12/15 20:30:35;;;;;;;;;;;;;;;19.30;65.50;100951.19;4978180;28;1252;-65
2020/12/15 20:33:00;;;;;;;;;;;;;;;19.29;65.69;100946.81;4978601;28;2004;-63
2020/12/15 20:35:25;;;;;;;;;;;;;;;19.28;65.45;100950.38;4979866;28;1355;-65
2020/12/15 20:37:51;;;;;;;;;;;;;;;19.27;65.67;100956.63;4979710;28;1227;-64
2020/12/15 20:40:16;;;;;;;;;;;;;;;20.17;71.37;100954.00;4981248;28;1259;-64
2020/12/15 20:42:43;;;;;;;;;;;;;;;19.66;65.05;100954.41;4980982;28;1314;-65
2020/12/15 20:45:09;;;;;;;;;;;;;;;20.03;64.33;100948.66;4988330;28;1318;-60
2020/12/15 20:47:35;;;;;;;;;;;;;;;19.97;62.83;100964.06;4985495;28;1266;-67
2020/12/15 20:50:01;;;;;;;;;;;;;;;19.64;64.66;100964.19;4987415;28;1277;-75
2020/12/15 20:52:26;;;;;;;;;;;;;;;20.03;63.49;100951.31;4971850;28;1920;-67
2020/12/15 20:54:52;;;;;;;;;;;;;;;21.00;61.88;100955.97;4987902;28;1296;-61
2020/12/15 20:57:18;;;;;;;;;;;;;;;20.27;62.56;100969.34;4988542;28;1219;-72
2020/12/15 21:04:22;;;;;;;;;;;;;;;22.88;53.45;100961.91;5139164;27;1326;-81
2020/12/15 21:06:50;;;;;;;;;;;;;;;22.84;53.84;100961.25;5103567;28;1260;-74
2020/12/15 21:09:15;;;;;;;;;;;;;;;22.52;54.56;100967.97;5119246;28;1348;-72
2020/12/15 21:11:41;;;;;;;;;;;;;;;22.99;53.64;100964.63;5085311;28;1670;-75
2020/12/15 21:14:09;;;;;;;;;;;;;;;23.28;52.51;100960.75;5078260;28;1431;-72
2020/12/15 21:16:40;;;;;;;;;;;;;;;21.99;56.90;100966.28;5110165;28;1208;-75
2020/12/15 21:19:06;;;;;;;;;;;;;;;20.81;61.12;100963.34;5102610;28;1308;-76
2020/12/15 21:21:59;;;;;;;;;;;;;;;20.48;62.23;100968.06;5071651;27;11230;-77
2020/12/15 21:24:30;;;;;;;;;;;;;;;20.45;62.56;100974.41;5059058;28;1485;-78
2020/12/15 21:26:58;;;;;;;;;;;;;;;20.46;62.39;100954.06;5072869;28;1570;-77
2020/12/15 21:29:24;;;;;;;;;;;;;;;20.54;63.87;100954.47;5064964;28;1583;-78
2020/12/15 21:31:50;;;;;;;;;;;;;;;20.45;63.08;100953.22;5069348;28;10036;-77
2020/12/15 21:34:18;;;;;;;;;;;;;;;20.30;63.66;100959.44;4991486;28;1681582;-76
2020/12/15 21:36:43;;;;;;;;;;;;;;;20.28;63.77;100965.75;5041378;28;1578;-77
2020/12/15 21:39:08;;;;;;;;;;;;;;;20.29;63.93;100975.41;5042430;28;1516;-76
2020/12/15 21:41:37;;;;;;;;;;;;;;;20.33;63.96;100977.78;5040840;28;1191;-76
2020/12/15 21:44:02;;;;;;;;;;;;;;;20.30;63.99;100974.47;5051628;28;1490;-75
2020/12/15 21:46:30;;;;;;;;;;;;;;;20.29;64.07;100976.25;5036226;28;1431;-76
2020/12/15 21:48:56;;;;;;;;;;;;;;;20.27;63.97;100980.78;5040046;28;1551;-76
2020/12/15 21:51:27;;;;;;;;;;;;;;;20.25;64.20;100971.19;5031256;28;1432;-76
2020/12/15 21:53:53;;;;;;;;;;;;;;;20.27;64.19;100979.94;5041739;28;1902;-76
2020/12/15 21:56:18;;;;;;;;;;;;;;;20.23;64.36;100981.03;5051816;28;1364;-75
2020/12/15 21:58:45;;;;;;;;;;;;;;;20.14;64.54;100974.50;5032606;28;1334;-76
2020/12/15 22:01:11;;;;;;;;;;;;;;;20.31;64.33;100976.16;5054023;28;1549;-75
2020/12/15 22:03:36;;;;;;;;;;;;;;;20.31;64.16;100976.16;5033826;28;1405;-74
2020/12/15 22:06:02;;;;;;;;;;;;;;;20.28;64.00;100986.91;5033470;28;1394;-74
2020/12/15 22:08:27;;;;;;;;;;;;;;;20.27;63.44;100996.66;5032160;28;1270;-74
2020/12/15 22:10:53;;;;;;;;;;;;;;;20.30;63.89;100991.19;5024461;28;1292;-74
2020/12/15 22:13:19;;;;;;;;;;;;;;;20.28;63.41;100982.47;5039291;28;1914;-75
2020/12/15 22:15:55;;;;;;;;;;;;;;;20.21;63.92;100975.84;5026512;28;1478;-73
2020/12/15 22:18:20;;;;;;;;;;;;;;;20.22;63.97;100979.31;5029377;28;1569;-75
2020/12/15 22:20:46;;;;;;;;;;;;;;;20.22;63.76;100985.47;5027616;28;1606;-73
2020/12/15 22:23:11;;;;;;;;;;;;;;;20.32;63.75;100985.81;5020416;28;1501;-75
2020/12/15 22:25:37;;;;;;;;;;;;;;;20.44;64.81;100985.06;5021997;28;1430;-75
2020/12/15 22:28:02;;;;;;;;;;;;;;;20.42;64.09;100995.75;5023245;28;1492;-75
2020/12/15 22:30:28;;;;;;;;;;;;;;;20.41;64.65;100990.53;5025861;28;1301;-74
2020/12/15 22:32:53;;;;;;;;;;;;;;;20.41;64.12;100995.81;5015892;28;1973;-76
2020/12/15 22:35:21;;;;;;;;;;;;;;;20.37;64.58;100997.81;5035410;28;1397;-76
2020/12/15 22:37:47;;;;;;;;;;;;;;;20.35;64.44;100993.56;5021757;28;1482;-76
2020/12/15 22:40:12;;;;;;;;;;;;;;;20.39;65.01;100989.78;5011824;28;1248;-79
2020/12/15 22:42:38;;;;;;;;;;;;;;;20.38;64.51;100988.94;5030232;28;1496;-77
2020/12/15 22:45:04;;;;;;;;;;;;;;;20.34;64.58;100994.47;5022198;28;1504;-77
2020/12/15 22:47:29;;;;;;;;;;;;;;;20.30;64.08;100988.56;5019700;28;1505;-78
2020/12/15 22:49:54;;;;;;;;;;;;;;;20.32;64.56;100984.00;5012637;28;1355;-76
2020/12/15 22:52:20;;;;;;;;;;;;;;;20.31;64.60;100986.72;5021385;28;1969;-76
2020/12/15 22:54:47;;;;;;;;;;;;;;;20.36;65.50;100984.69;5017210;28;1284;-79
2020/12/15 22:57:12;;;;;;;;;;;;;;;20.41;65.50;100987.88;5023929;28;1243;-78
2020/12/15 22:59:38;;;;;;;;;;;;;;;20.33;64.71;100984.88;5031420;28;1307;-77
2020/12/15 23:02:09;;;;;;;;;;;;;;;20.28;64.55;100984.25;5004708;28;2006;-77
2020/12/15 23:04:35;;;;;;;;;;;;;;;20.29;64.87;100996.56;5026725;28;1311;-77
2020/12/15 23:07:20;;;;;;;;;;;;;;;;;;;;;
2020/12/15 23:09:45;;;;;;;;;;;;;;;20.24;65.15;100993.31;5030477;28;1272;-77
2020/12/15 23:15:29;;;;;;;;;;;;;;;20.40;64.84;100996.75;5032053;28;1228;-80
2020/12/15 23:18:07;;;;;;;;;;;;;;;20.30;64.32;100998.28;5030604;28;1211;-79
2020/12/15 23:20:35;;;;;;;;;;;;;;;20.34;65.41;100997.97;5081118;23;1890;-78
2020/12/15 23:23:01;;;;;;;;;;;;;;;20.35;64.91;100998.84;4990579;28;2015;-80
2020/12/15 23:25:27;;;;;;;;;;;;;;;20.24;64.51;101001.25;4990691;28;1419;-83
2020/12/15 23:27:53;;;;;;;;;;;;;;;20.22;64.71;100992.53;4991734;28;1016;-81
2020/12/15 23:30:19;;;;;;;;;;;;;;;20.17;64.99;101004.25;4993014;28;1272;-80
2020/12/15 23:32:44;;;;;;;;;;;;;;;20.18;64.82;101005.94;4990024;28;1930;-79
2020/12/15 23:35:11;;;;;;;;;;;;;;;20.16;64.78;101004.34;4985666;28;1397;-81
2020/12/15 23:37:37;;;;;;;;;;;;;;;20.11;64.97;101001.97;4973238;28;1009;-78
2020/12/15 23:40:05;;;;;;;;;;;;;;;20.17;64.97;100993.69;4972785;28;1499;-77
2020/12/15 23:42:31;;;;;;;;;;;;;;;20.21;64.98;100990.84;4971951;28;1158;-78
2020/12/15 23:44:57;;;;;;;;;;;;;;;20.12;65.21;100993.06;4974354;28;1269;-78
2020/12/15 23:47:27;;;;;;;;;;;;;;;20.13;65.01;100994.78;4972889;28;1306;-78
2020/12/15 23:49:53;;;;;;;;;;;;;;;20.15;64.68;100995.53;4976391;28;1351;-79
2020/12/15 23:52:19;;;;;;;;;;;;;;;20.14;64.66;100985.06;4981672;28;1912;-78
2020/12/15 23:54:44;;;;;;;;;;;;;;;20.11;65.08;100986.09;4989516;28;1239;-77
2020/12/15 23:57:10;;;;;;;;;;;;;;;20.08;65.30;100991.56;4993750;28;1208;-78
2020/12/15 23:59:35;;;;;;;;;;;;;;;20.08;65.01;100986.28;4985296;28;1336;-78
